createdAt,value
2018-01-05T00:00:21.134Z,11.17
2018-01-05T00:02:48.106Z,19.03
2018-01-05T00:05:14.283Z,19.37
2018-01-05T00:07:41.288Z,8.53
2018-01-05T00:10:07.467Z,11.63
2018-01-05T00:12:34.448Z,13.20
2018-01-05T00:15:00.626Z,23.17
2018-01-05T00:17:26.852Z,17.37
2018-01-05T00:19:53.057Z,15.13
2018-01-05T00:22:19.286Z,14.00
2018-01-05T00:24:45.554Z,17.83
2018-01-05T00:27:11.713Z,16.57
2018-01-05T00:29:38.659Z,22.10
2018-01-05T00:32:04.837Z,19.30
2018-01-05T00:34:31.051Z,19.67
2018-01-05T00:36:57.242Z,17.53
2018-01-05T00:39:24.184Z,24.37
2018-01-05T00:41:50.376Z,14.93
2018-01-05T00:44:16.541Z,14.17
2018-01-05T00:46:43.520Z,17.43
2018-01-05T00:49:09.678Z,10.10
2018-01-05T00:51:35.841Z,18.17
2018-01-05T00:54:02.775Z,15.10
2018-01-05T00:56:29.668Z,14.50
2018-01-05T00:58:55.822Z,17.43
2018-01-05T01:01:21.985Z,17.53
2018-01-05T01:03:48.127Z,23.47
2018-01-05T01:06:14.340Z,21.80
2018-01-05T01:08:40.538Z,10.93
2018-01-05T01:11:06.732Z,24.27
2018-01-05T01:13:32.940Z,20.10
2018-01-05T01:15:59.146Z,14.53
2018-01-05T01:18:25.270Z,14.83
2018-01-05T01:20:52.182Z,19.00
2018-01-05T01:23:19.126Z,17.60
2018-01-05T01:25:45.296Z,18.60
2018-01-05T01:28:11.555Z,25.43
2018-01-05T01:30:37.748Z,17.83
2018-01-05T01:33:03.972Z,14.30
2018-01-05T01:35:30.192Z,23.10
2018-01-05T01:37:57.102Z,10.83
2018-01-05T01:40:23.332Z,11.90
2018-01-05T01:42:50.291Z,11.73
2018-01-05T01:45:16.530Z,13.40
2018-01-05T01:47:42.763Z,14.20
2018-01-05T01:50:09.698Z,15.40
2018-01-05T01:52:35.913Z,17.90
2018-01-05T01:55:02.130Z,17.53
2018-01-05T01:57:28.342Z,12.47
2018-01-05T01:59:54.528Z,20.30
2018-01-05T02:02:21.469Z,13.30
2018-01-05T02:04:48.442Z,13.53
2018-01-05T02:07:14.579Z,22.27
2018-01-05T02:09:40.779Z,17.80
2018-01-05T02:12:06.960Z,15.73
2018-01-05T02:14:33.139Z,17.03
2018-01-05T02:16:59.350Z,20.00
2018-01-05T02:19:26.270Z,25.10
2018-01-05T02:21:52.401Z,19.33
2018-01-05T02:24:18.545Z,14.37
2018-01-05T02:26:45.486Z,25.37
2018-01-05T02:29:12.439Z,14.90
2018-01-05T02:31:39.389Z,21.27
2018-01-05T02:34:05.606Z,16.63
2018-01-05T02:36:32.555Z,21.20
2018-01-05T02:38:59.489Z,18.93
2018-01-05T02:41:26.387Z,12.47
2018-01-05T02:43:52.612Z,23.07
2018-01-05T02:46:18.827Z,20.83
2018-01-05T02:48:44.979Z,17.87
2018-01-05T02:51:11.228Z,23.87
2018-01-05T02:53:38.167Z,21.67
2018-01-05T02:56:05.089Z,16.97
2018-01-05T02:58:31.335Z,21.60
2018-01-05T03:00:57.547Z,22.97
2018-01-05T03:03:23.802Z,24.97
2018-01-05T03:05:50.710Z,20.77
2018-01-05T03:08:16.908Z,22.73
2018-01-05T03:10:43.812Z,20.03
2018-01-05T03:13:10.044Z,13.47
2018-01-05T03:15:36.220Z,17.73
2018-01-05T03:18:02.424Z,32.20
2018-01-05T03:20:29.366Z,10.63
2018-01-05T03:22:56.358Z,18.10
2018-01-05T03:25:22.600Z,18.63
2018-01-05T03:27:48.762Z,16.23
2018-01-05T03:30:15.016Z,15.17
2018-01-05T03:32:41.148Z,24.90
2018-01-05T03:35:07.371Z,17.27
2018-01-05T03:37:33.610Z,21.10
2018-01-05T03:39:59.823Z,12.07
2018-01-05T03:42:25.970Z,21.30
2018-01-05T03:44:52.222Z,10.80
2018-01-05T03:47:18.454Z,22.03
2018-01-05T03:49:44.593Z,19.53
2018-01-05T03:52:10.798Z,15.83
2018-01-05T03:54:36.966Z,16.47
2018-01-05T03:57:03.106Z,20.10
2018-01-05T03:59:30.008Z,15.80
2018-01-05T04:01:56.176Z,16.33
2018-01-05T04:04:23.113Z,9.87
2018-01-05T04:06:50.101Z,15.20
2018-01-05T04:09:16.346Z,15.20
2018-01-05T04:11:42.531Z,25.70
2018-01-05T04:14:09.452Z,22.60
2018-01-05T04:16:35.687Z,14.80
2018-01-05T04:19:02.660Z,13.93
2018-01-05T04:21:28.850Z,17.47
2018-01-05T04:23:55.077Z,14.47
2018-01-05T04:26:21.294Z,15.30
2018-01-05T04:28:48.237Z,14.90
2018-01-05T04:31:14.421Z,18.60
2018-01-05T04:33:40.651Z,14.50
2018-01-05T04:36:06.887Z,22.37
2018-01-05T04:38:33.062Z,10.07
2018-01-05T04:40:59.259Z,12.37
2018-01-05T04:43:25.448Z,18.83
2018-01-05T04:45:52.377Z,25.60
2018-01-05T04:48:19.331Z,18.33
2018-01-05T04:50:46.199Z,17.90
2018-01-05T04:53:12.461Z,7.40
2018-01-05T04:55:38.628Z,9.37
2018-01-05T04:58:05.521Z,20.53
2018-01-05T05:00:31.731Z,15.83
2018-01-05T05:02:57.955Z,14.23
2018-01-05T05:05:24.187Z,16.50
2018-01-05T05:07:50.432Z,13.10
2018-01-05T05:10:16.674Z,10.20
2018-01-05T05:12:42.923Z,15.67
2018-01-05T05:15:09.082Z,22.17
2018-01-05T05:17:35.983Z,14.83
2018-01-05T05:20:02.171Z,19.97
2018-01-05T05:22:28.414Z,16.23
2018-01-05T05:24:54.649Z,13.63
2018-01-05T05:27:20.891Z,19.20
2018-01-05T05:29:47.063Z,15.60
2018-01-05T05:32:14.074Z,15.53
2018-01-05T05:34:40.274Z,16.67
2018-01-05T05:37:06.452Z,27.93
2018-01-05T05:39:33.341Z,17.43
2018-01-05T05:41:59.551Z,16.67
2018-01-05T05:44:25.819Z,14.83
2018-01-05T05:46:52.026Z,26.10
2018-01-05T05:49:18.253Z,20.57
2018-01-05T05:51:44.411Z,16.17
2018-01-05T05:54:10.574Z,12.20
2018-01-05T05:56:36.784Z,15.03
2018-01-05T05:59:03.026Z,18.57
2018-01-05T06:01:29.918Z,21.50
2018-01-05T06:03:56.074Z,16.80
2018-01-05T06:06:22.222Z,16.93
2018-01-05T06:08:49.159Z,17.67
2018-01-05T06:11:21.374Z,24.10
2018-01-05T06:13:47.603Z,19.60
2018-01-05T06:16:13.775Z,17.13
2018-01-05T06:18:39.997Z,21.13
2018-01-05T06:21:06.196Z,22.43
2018-01-05T06:23:32.335Z,21.27
2018-01-05T06:25:58.501Z,18.13
2018-01-05T06:28:25.479Z,17.97
2018-01-05T06:30:51.657Z,15.80
2018-01-05T06:33:17.870Z,11.90
2018-01-05T06:35:43.994Z,18.73
2018-01-05T06:38:10.297Z,18.40
2018-01-05T06:40:36.524Z,19.20
2018-01-05T06:43:02.654Z,17.00
2018-01-05T06:45:28.857Z,20.53
2018-01-05T06:47:55.023Z,18.80
2018-01-05T06:50:21.183Z,20.73
2018-01-05T06:52:48.138Z,13.43
2018-01-05T06:55:16.307Z,18.40
2018-01-05T06:57:43.275Z,14.07
2018-01-05T07:00:09.440Z,19.23
2018-01-05T07:02:35.645Z,15.77
2018-01-05T07:05:01.816Z,22.53
2018-01-05T07:07:28.014Z,24.10
2018-01-05T07:09:54.217Z,19.03
2018-01-05T07:12:20.415Z,22.33
2018-01-05T07:14:47.326Z,17.43
2018-01-05T07:17:13.526Z,18.43
2018-01-05T07:19:39.807Z,13.67
2018-01-05T07:22:06.709Z,11.70
2018-01-05T07:24:32.939Z,11.63
2018-01-05T07:26:59.072Z,18.60
2018-01-05T07:29:25.407Z,16.03
2018-01-05T07:31:51.608Z,18.43
2018-01-05T07:34:17.792Z,13.23
2018-01-05T07:36:43.941Z,16.87
2018-01-05T07:39:10.907Z,21.07
2018-01-05T07:41:37.097Z,16.10
2018-01-05T07:44:03.334Z,12.17
2018-01-05T07:46:30.245Z,16.37
2018-01-05T07:48:56.420Z,16.33
2018-01-05T07:51:23.336Z,10.97
2018-01-05T07:53:49.516Z,15.33
2018-01-05T07:56:15.707Z,7.80
2018-01-05T07:58:42.696Z,14.63
2018-01-05T08:01:15.974Z,10.37
2018-01-05T08:03:42.120Z,20.03
2018-01-05T08:06:09.195Z,13.30
2018-01-05T08:08:35.382Z,13.47
2018-01-05T08:11:01.575Z,10.00
2018-01-05T08:13:28.571Z,17.63
2018-01-05T08:15:54.806Z,16.30
2018-01-05T08:18:21.015Z,9.37
2018-01-05T08:20:47.240Z,16.10
2018-01-05T08:23:13.488Z,17.10
2018-01-05T08:25:39.663Z,12.27
2018-01-05T08:28:06.690Z,17.73
2018-01-05T08:30:32.887Z,11.20
2018-01-05T08:32:59.066Z,22.07
2018-01-05T08:35:25.990Z,11.90
2018-01-05T08:37:53.937Z,15.50
2018-01-05T08:40:20.128Z,8.63
2018-01-05T08:42:46.345Z,7.20
2018-01-05T08:45:12.555Z,11.80
2018-01-05T08:47:39.511Z,5.93
2018-01-05T08:50:06.640Z,8.13
2018-01-05T08:52:33.740Z,6.90
2018-01-05T08:54:59.927Z,16.50
2018-01-05T08:57:26.822Z,8.00
2018-01-05T08:59:53.135Z,9.33
2018-01-05T09:02:19.290Z,9.23
2018-01-05T09:04:45.556Z,12.83
2018-01-05T09:07:12.514Z,13.60
2018-01-05T09:09:39.435Z,10.70
2018-01-05T09:12:05.668Z,8.57
2018-01-05T09:14:32.576Z,10.50
2018-01-05T09:16:58.742Z,9.20
2018-01-05T09:19:25.652Z,8.30
2018-01-05T09:21:51.898Z,4.63
2018-01-05T09:24:18.082Z,11.50
2018-01-05T09:26:44.328Z,11.87
2018-01-05T09:29:10.650Z,8.00
2018-01-05T09:31:36.828Z,8.20
2018-01-05T09:34:02.992Z,9.33
2018-01-05T09:36:29.223Z,11.30
2018-01-05T09:38:55.384Z,7.80
2018-01-05T09:41:21.550Z,10.90
2018-01-05T09:43:48.494Z,6.07
2018-01-05T09:46:15.436Z,11.03
2018-01-05T09:48:42.319Z,10.17
2018-01-05T09:51:08.587Z,10.63
2018-01-05T09:53:34.807Z,13.10
2018-01-05T09:56:01.817Z,6.97
2018-01-05T09:58:28.024Z,7.83
2018-01-05T10:00:54.942Z,7.60
2018-01-05T10:03:21.935Z,7.80
2018-01-05T10:05:48.069Z,9.70
2018-01-05T10:08:14.206Z,8.73
2018-01-05T10:10:41.089Z,6.80
2018-01-05T10:13:08.012Z,4.40
2018-01-05T10:15:34.235Z,8.00
2018-01-05T10:18:00.462Z,9.53
2018-01-05T10:20:26.662Z,5.27
2018-01-05T10:22:52.879Z,7.17
2018-01-05T10:25:19.096Z,9.10
2018-01-05T10:27:45.300Z,6.50
2018-01-05T10:30:12.256Z,6.27
2018-01-05T10:32:39.198Z,5.20
2018-01-05T10:35:06.423Z,2.30
2018-01-05T10:37:32.706Z,1.63
2018-01-05T10:39:58.968Z,8.30
2018-01-05T10:42:25.162Z,4.73
2018-01-05T10:44:51.376Z,6.97
2018-01-05T10:47:17.583Z,13.60
2018-01-05T10:49:44.490Z,5.87
2018-01-05T10:52:10.694Z,8.73
2018-01-05T10:54:36.904Z,3.47
2018-01-05T10:57:03.826Z,5.50
2018-01-05T10:59:30.342Z,6.80
2018-01-05T11:01:57.266Z,7.23
2018-01-05T11:04:23.445Z,6.97
2018-01-05T11:06:50.413Z,12.93
2018-01-05T11:09:16.640Z,5.87
2018-01-05T11:11:42.860Z,2.57
2018-01-05T11:14:09.771Z,4.77
2018-01-05T11:16:35.975Z,5.40
2018-01-05T11:19:02.124Z,5.50
2018-01-05T11:21:28.263Z,3.43
2018-01-05T11:23:54.387Z,5.30
2018-01-05T11:26:20.543Z,4.27
2018-01-05T11:28:53.643Z,6.93
2018-01-05T11:31:19.866Z,3.93
2018-01-05T11:33:46.080Z,3.93
2018-01-05T11:36:13.052Z,6.87
2018-01-05T11:38:39.243Z,5.13
2018-01-05T11:41:06.135Z,10.00
2018-01-05T11:43:32.274Z,4.93
2018-01-05T11:45:58.447Z,8.33
2018-01-05T11:48:25.352Z,3.53
2018-01-05T11:50:51.532Z,2.77
2018-01-05T11:53:17.692Z,4.50
2018-01-05T11:55:43.880Z,9.00
2018-01-05T11:58:10.762Z,4.23
2018-01-05T12:00:37.029Z,3.43
2018-01-05T12:03:04.002Z,6.67
2018-01-05T12:05:30.170Z,13.73
2018-01-05T12:07:56.383Z,14.80
2018-01-05T12:10:22.591Z,9.10
2018-01-05T12:12:48.771Z,4.93
2018-01-05T12:15:14.963Z,5.87
2018-01-05T12:17:41.132Z,4.50
2018-01-05T12:20:07.342Z,6.17
2018-01-05T12:22:33.555Z,6.77
2018-01-05T12:24:59.730Z,2.53
2018-01-05T12:27:26.702Z,13.57
2018-01-05T12:29:52.948Z,5.77
2018-01-05T12:32:19.094Z,4.30
2018-01-05T12:34:45.362Z,3.63
2018-01-05T12:37:12.331Z,9.67
2018-01-05T12:39:38.537Z,4.63
2018-01-05T12:42:05.506Z,5.13
2018-01-05T12:44:31.723Z,6.70
2018-01-05T12:46:57.943Z,4.17
2018-01-05T12:49:24.917Z,3.93
2018-01-05T12:51:51.146Z,5.53
2018-01-05T12:54:17.367Z,7.80
2018-01-05T12:56:43.587Z,6.77
2018-01-05T12:59:09.788Z,8.87
2018-01-05T13:01:36.049Z,5.43
2018-01-05T13:04:02.217Z,7.77
2018-01-05T13:06:28.453Z,7.33
2018-01-05T13:08:55.387Z,5.60
2018-01-05T13:11:21.555Z,5.83
2018-01-05T13:13:48.543Z,5.03
2018-01-05T13:16:14.713Z,4.07
2018-01-05T13:18:40.935Z,3.07
2018-01-05T13:21:07.174Z,3.37
2018-01-05T13:23:34.123Z,6.90
2018-01-05T13:26:00.993Z,8.13
2018-01-05T13:28:27.190Z,2.73
2018-01-05T13:30:53.337Z,4.80
2018-01-05T13:33:19.550Z,4.50
2018-01-05T13:35:46.509Z,5.33
2018-01-05T13:38:12.770Z,5.47
2018-01-05T13:40:38.914Z,6.40
2018-01-05T13:43:05.134Z,12.33
2018-01-05T13:45:31.327Z,3.40
2018-01-05T13:47:57.525Z,8.90
2018-01-05T13:50:24.423Z,6.23
2018-01-05T13:52:50.637Z,23.03
2018-01-05T13:55:16.841Z,26.83
2018-01-05T13:57:43.790Z,22.57
2018-01-05T14:00:10.749Z,19.10
2018-01-05T14:02:36.949Z,18.83
2018-01-05T14:05:03.893Z,15.30
2018-01-05T14:07:30.795Z,18.17
2018-01-05T14:09:57.009Z,18.47
2018-01-05T14:12:23.177Z,9.07
2018-01-05T14:14:49.415Z,8.50
2018-01-05T14:17:15.635Z,7.73
2018-01-05T14:19:41.880Z,10.03
2018-01-05T14:22:08.840Z,7.10
2018-01-05T14:24:35.053Z,13.17
2018-01-05T14:27:02.000Z,8.07
2018-01-05T14:29:28.940Z,11.27
2018-01-05T14:31:55.879Z,9.80
2018-01-05T14:34:22.029Z,13.00
2018-01-05T14:36:49.266Z,8.37
2018-01-05T14:39:16.222Z,5.37
2018-01-05T14:41:43.146Z,4.13
2018-01-05T14:44:09.299Z,5.40
2018-01-05T14:46:36.216Z,7.20
2018-01-05T14:49:02.436Z,5.20
2018-01-05T14:51:28.576Z,4.40
2018-01-05T14:53:54.786Z,6.47
2018-01-05T14:56:21.061Z,4.60
2018-01-05T14:58:47.269Z,7.87
2018-01-05T15:01:14.216Z,8.43
2018-01-05T15:03:41.150Z,6.17
2018-01-05T15:06:08.126Z,8.10
2018-01-05T15:08:34.367Z,4.87
2018-01-05T15:11:00.654Z,7.83
2018-01-05T15:13:27.672Z,5.03
2018-01-05T15:15:53.804Z,4.70
2018-01-05T15:18:20.258Z,8.63
2018-01-05T15:20:47.182Z,5.60
2018-01-05T15:23:13.862Z,3.83
2018-01-05T15:25:41.250Z,7.80
2018-01-05T15:28:08.190Z,3.80
2018-01-05T15:30:34.509Z,2.50
2018-01-05T15:33:00.805Z,5.80
2018-01-05T15:35:26.984Z,3.83
2018-01-05T15:37:53.207Z,4.37
2018-01-05T15:40:19.369Z,5.00
2018-01-05T15:42:45.587Z,19.63
2018-01-05T15:45:11.809Z,7.13
2018-01-05T15:47:38.038Z,8.37
2018-01-05T15:50:04.265Z,4.50
2018-01-05T15:52:30.491Z,3.03
2018-01-05T15:54:57.571Z,7.43
2018-01-05T15:57:24.987Z,3.37
2018-01-05T15:59:51.160Z,3.60
2018-01-05T16:02:17.636Z,3.73
2018-01-05T16:04:44.170Z,10.33
2018-01-05T16:07:10.428Z,8.00
2018-01-05T16:09:36.715Z,16.20
2018-01-05T16:12:02.941Z,10.70
2018-01-05T16:14:29.212Z,9.20
2018-01-05T16:16:55.415Z,3.53
2018-01-05T16:19:21.680Z,2.80
2018-01-05T16:21:47.878Z,2.53
2018-01-05T16:24:14.056Z,3.13
2018-01-05T16:26:41.067Z,3.97
2018-01-05T16:29:07.273Z,8.07
2018-01-05T16:31:33.531Z,8.10
2018-01-05T16:34:00.449Z,6.57
2018-01-05T16:36:26.692Z,5.70
2018-01-05T16:38:52.889Z,5.17
2018-01-05T16:41:19.057Z,2.60
2018-01-05T16:43:45.226Z,4.00
2018-01-05T16:46:12.144Z,4.70
2018-01-05T16:48:39.022Z,5.37
2018-01-05T16:51:05.952Z,11.07
2018-01-05T16:53:32.131Z,6.10
2018-01-05T16:55:58.347Z,6.57
2018-01-05T16:58:24.558Z,7.30
2018-01-05T17:00:50.743Z,4.70
2018-01-05T17:03:16.946Z,7.83
2018-01-05T17:05:43.160Z,5.00
2018-01-05T17:08:09.366Z,8.73
2018-01-05T17:10:36.275Z,3.37
2018-01-05T17:13:02.523Z,2.80
2018-01-05T17:15:29.431Z,2.73
2018-01-05T17:17:55.583Z,3.60
2018-01-05T17:20:22.517Z,2.83
2018-01-05T17:22:48.721Z,3.73
2018-01-05T17:25:14.950Z,4.40
2018-01-05T17:27:41.200Z,2.73
2018-01-05T17:30:07.950Z,3.67
2018-01-05T17:32:34.887Z,7.03
2018-01-05T17:35:01.257Z,6.10
2018-01-05T17:37:27.454Z,2.80
2018-01-05T17:39:53.637Z,6.70
2018-01-05T17:42:19.907Z,2.93
2018-01-05T17:44:46.840Z,4.43
2018-01-05T17:47:13.194Z,4.43
2018-01-05T17:49:40.131Z,6.30
2018-01-05T17:52:06.370Z,2.53
2018-01-05T17:54:33.278Z,3.43
2018-01-05T17:56:59.462Z,2.80
2018-01-05T17:59:25.689Z,5.70
2018-01-05T18:01:51.960Z,3.10
2018-01-05T18:04:18.148Z,3.57
2018-01-05T18:06:45.120Z,3.40
2018-01-05T18:09:11.353Z,9.93
2018-01-05T18:11:37.576Z,4.57
2018-01-05T18:14:03.725Z,7.27
2018-01-05T18:16:29.839Z,5.10
2018-01-05T18:18:56.092Z,7.97
2018-01-05T18:21:22.289Z,5.90
2018-01-05T18:23:48.460Z,5.70
2018-01-05T18:26:14.702Z,4.77
2018-01-05T18:28:41.641Z,4.77
2018-01-05T18:31:08.630Z,8.13
2018-01-05T18:33:34.841Z,8.00
2018-01-05T18:36:01.041Z,7.97
2018-01-05T18:38:27.254Z,5.87
2018-01-05T18:40:53.429Z,6.47
2018-01-05T18:43:19.630Z,7.10
2018-01-05T18:45:46.551Z,5.20
2018-01-05T18:48:12.794Z,5.73
2018-01-05T18:50:38.948Z,5.20
2018-01-05T18:53:05.162Z,6.93
2018-01-05T18:55:32.124Z,4.93
2018-01-05T18:57:58.280Z,7.33
2018-01-05T19:00:24.599Z,6.80
2018-01-05T19:02:50.839Z,6.60
2018-01-05T19:05:17.003Z,6.63
2018-01-05T19:07:43.176Z,4.77
2018-01-05T19:10:09.360Z,7.37
2018-01-05T19:12:35.535Z,6.53
2018-01-05T19:15:01.738Z,5.03
2018-01-05T19:17:28.832Z,7.33
2018-01-05T19:19:55.044Z,4.50
2018-01-05T19:22:21.224Z,10.33
2018-01-05T19:24:48.229Z,4.83
2018-01-05T19:27:14.457Z,4.33
2018-01-05T19:29:40.684Z,4.10
2018-01-05T19:32:06.975Z,5.00
2018-01-05T19:34:33.167Z,4.40
2018-01-05T19:36:59.284Z,4.90
2018-01-05T19:39:25.535Z,6.13
2018-01-05T19:41:53.297Z,5.90
2018-01-05T19:44:19.568Z,5.80
2018-01-05T19:46:45.791Z,5.13
2018-01-05T19:49:11.989Z,5.57
2018-01-05T19:51:38.998Z,7.40
2018-01-05T19:54:05.228Z,5.13
2018-01-05T19:56:31.446Z,4.63
2018-01-05T19:58:57.703Z,7.10
2018-01-05T20:01:23.951Z,5.33
2018-01-05T20:03:50.123Z,6.37
2018-01-05T20:06:16.342Z,11.93
2018-01-05T20:08:42.621Z,5.60
2018-01-05T20:11:08.811Z,5.90
2018-01-05T20:13:35.028Z,5.60
2018-01-05T20:16:01.291Z,6.43
2018-01-05T20:18:27.450Z,7.47
2018-01-05T20:20:54.460Z,7.97
2018-01-05T20:23:20.714Z,7.17
2018-01-05T20:25:47.830Z,6.70
2018-01-05T20:28:14.104Z,6.87
2018-01-05T20:30:41.127Z,10.90
2018-01-05T20:33:07.283Z,7.27
2018-01-05T20:35:34.287Z,8.23
2018-01-05T20:38:01.515Z,7.70
2018-01-05T20:40:29.037Z,8.13
2018-01-05T20:42:56.000Z,8.60
2018-01-05T20:45:22.216Z,9.43
2018-01-05T20:47:49.185Z,7.07
2018-01-05T20:50:15.395Z,8.23
2018-01-05T20:52:41.598Z,10.93
2018-01-05T20:55:07.768Z,9.67
2018-01-05T20:57:34.003Z,8.73
2018-01-05T21:00:00.198Z,9.67
2018-01-05T21:02:27.147Z,9.10
2018-01-05T21:04:54.087Z,11.10
2018-01-05T21:07:21.065Z,9.83
2018-01-05T21:09:47.291Z,11.73
2018-01-05T21:12:13.498Z,16.83
2018-01-05T21:14:39.750Z,12.10
2018-01-05T21:17:05.939Z,15.00
2018-01-05T21:19:32.848Z,14.90
2018-01-05T21:21:59.136Z,13.87
2018-01-05T21:24:25.422Z,16.10
2018-01-05T21:26:51.587Z,13.80
2018-01-05T21:29:18.649Z,13.03
2018-01-05T21:31:44.813Z,12.60
2018-01-05T21:34:10.974Z,13.70
2018-01-05T21:36:37.927Z,13.13
2018-01-05T21:39:04.848Z,13.47
2018-01-05T21:41:31.067Z,15.53
2018-01-05T21:43:57.994Z,17.30
2018-01-05T21:46:24.246Z,14.70
2018-01-05T21:48:50.422Z,12.80
2018-01-05T21:51:16.693Z,11.97
2018-01-05T21:53:42.985Z,14.27
2018-01-05T21:56:09.148Z,15.77
2018-01-05T21:58:35.387Z,17.00
2018-01-05T22:01:01.610Z,12.47
2018-01-05T22:03:27.776Z,12.77
2018-01-05T22:05:53.982Z,15.33
2018-01-05T22:08:20.909Z,15.30
2018-01-05T22:10:47.136Z,12.50
2018-01-05T22:13:13.302Z,13.03
2018-01-05T22:15:40.267Z,13.93
2018-01-05T22:18:06.490Z,15.23
2018-01-05T22:20:32.777Z,15.73
2018-01-05T22:22:59.019Z,16.83
2018-01-05T22:25:26.074Z,14.40
2018-01-05T22:27:52.960Z,12.53
2018-01-05T22:30:19.179Z,12.90
2018-01-05T22:32:45.338Z,12.27
2018-01-05T22:35:11.526Z,18.10
2018-01-05T22:37:37.691Z,18.03
2018-01-05T22:40:03.874Z,15.37
2018-01-05T22:42:30.065Z,13.40
2018-01-05T22:44:56.217Z,14.73
2018-01-05T22:47:23.153Z,14.20
2018-01-05T22:49:50.081Z,15.03
2018-01-05T22:52:16.249Z,16.47
2018-01-05T22:54:42.364Z,13.20
2018-01-05T22:57:09.316Z,14.63
2018-01-05T22:59:35.513Z,15.63
2018-01-05T23:02:02.477Z,15.67
2018-01-05T23:04:29.447Z,13.43
2018-01-05T23:06:55.699Z,14.10
2018-01-05T23:09:21.942Z,14.97
2018-01-05T23:11:48.139Z,16.70
2018-01-05T23:14:14.331Z,14.87
2018-01-05T23:16:41.239Z,14.67
2018-01-05T23:19:07.458Z,14.80
2018-01-05T23:21:33.690Z,20.10
2018-01-05T23:23:59.926Z,20.00
2018-01-05T23:26:26.099Z,21.57
2018-01-05T23:28:52.251Z,25.60
2018-01-05T23:31:18.397Z,25.87
2018-01-05T23:33:44.624Z,22.80
2018-01-05T23:36:10.821Z,26.97
2018-01-05T23:38:37.054Z,22.47
2018-01-05T23:41:03.350Z,22.80
2018-01-05T23:43:30.262Z,20.20
2018-01-05T23:45:56.549Z,17.20
2018-01-05T23:48:23.440Z,15.97
2018-01-05T23:50:49.577Z,19.90
2018-01-05T23:53:15.762Z,18.00
2018-01-05T23:55:41.989Z,16.80
2018-01-05T23:58:08.167Z,18.80
